sensor_id;sensor_type;location;lat;lon;timestamp;P1;durP1;ratioP1;P2;durP2;ratioP2
45065;SDS011;30830;53.704;10.004;2023-10-09T00:00:18;5.97;;;1.30;;
45065;SDS011;30830;53.704;10.004;2023-10-09T00:02:56;1.00;;;1.00;;
45065;SDS011;30830;53.704;10.004;2023-10-09T00:05:25;1.58;;;1.17;;
45065;SDS011;30830;53.704;10.004;2023-10-09T00:08:09;2.50;;;1.38;;
45065;SDS011;30830;53.704;10.004;2023-10-09T00:10:35;1.35;;;1.00;;
45065;SDS011;30830;53.704;10.004;2023-10-09T00:13:13;2.95;;;1.48;;
45065;SDS011;30830;53.704;10.004;2023-10-09T00:15:39;1.92;;;1.27;;
45065;SDS011;30830;53.704;10.004;2023-10-09T00:18:06;2.58;;;1.10;;
45065;SDS011;30830;53.704;10.004;2023-10-09T00:20:37;2.08;;;1.20;;
45065;SDS011;30830;53.704;10.004;2023-10-09T00:23:08;2.03;;;1.48;;
45065;SDS011;30830;53.704;10.004;2023-10-09T00:25:47;3.70;;;1.30;;
45065;SDS011;30830;53.704;10.004;2023-10-09T00:28:35;4.05;;;1.55;;
45065;SDS011;30830;53.704;10.004;2023-10-09T00:31:03;2.30;;;1.50;;
45065;SDS011;30830;53.704;10.004;2023-10-09T00:33:33;3.13;;;1.50;;
45065;SDS011;30830;53.704;10.004;2023-10-09T00:36:05;2.70;;;1.30;;
45065;SDS011;30830;53.704;10.004;2023-10-09T00:38:44;1.50;;;1.08;;
45065;SDS011;30830;53.704;10.004;2023-10-09T00:41:14;2.75;;;1.13;;
45065;SDS011;30830;53.704;10.004;2023-10-09T00:43:45;3.17;;;1.38;;
45065;SDS011;30830;53.704;10.004;2023-10-09T00:46:14;2.78;;;1.23;;
45065;SDS011;30830;53.704;10.004;2023-10-09T00:48:44;1.85;;;1.25;;
45065;SDS011;30830;53.704;10.004;2023-10-09T00:51:13;1.90;;;1.20;;
45065;SDS011;30830;53.704;10.004;2023-10-09T00:56:20;2.42;;;1.23;;
45065;SDS011;30830;53.704;10.004;2023-10-09T00:58:49;3.08;;;1.60;;
45065;SDS011;30830;53.704;10.004;2023-10-09T01:01:46;2.20;;;1.40;;
45065;SDS011;30830;53.704;10.004;2023-10-09T01:04:31;2.03;;;1.17;;
45065;SDS011;30830;53.704;10.004;2023-10-09T01:07:06;3.47;;;1.25;;
45065;SDS011;30830;53.704;10.004;2023-10-09T01:09:40;2.65;;;1.65;;
45065;SDS011;30830;53.704;10.004;2023-10-09T01:12:09;3.72;;;1.40;;
45065;SDS011;30830;53.704;10.004;2023-10-09T01:14:42;1.85;;;1.25;;
45065;SDS011;30830;53.704;10.004;2023-10-09T01:17:08;2.28;;;1.20;;
45065;SDS011;30830;53.704;10.004;2023-10-09T01:19:34;2.47;;;1.75;;
45065;SDS011;30830;53.704;10.004;2023-10-09T01:22:00;3.85;;;1.58;;
45065;SDS011;30830;53.704;10.004;2023-10-09T01:24:37;2.20;;;1.20;;
45065;SDS011;30830;53.704;10.004;2023-10-09T01:27:04;2.50;;;1.40;;
45065;SDS011;30830;53.704;10.004;2023-10-09T01:29:36;1.75;;;0.93;;
45065;SDS011;30830;53.704;10.004;2023-10-09T01:32:02;1.90;;;1.65;;
45065;SDS011;30830;53.704;10.004;2023-10-09T01:34:28;2.40;;;1.38;;
45065;SDS011;30830;53.704;10.004;2023-10-09T01:37:07;3.95;;;0.98;;
45065;SDS011;30830;53.704;10.004;2023-10-09T01:39:45;4.28;;;1.17;;
45065;SDS011;30830;53.704;10.004;2023-10-09T01:42:13;1.50;;;0.95;;
45065;SDS011;30830;53.704;10.004;2023-10-09T01:44:48;2.78;;;1.25;;
45065;SDS011;30830;53.704;10.004;2023-10-09T01:47:14;2.35;;;1.67;;
45065;SDS011;30830;53.704;10.004;2023-10-09T01:49:40;2.35;;;1.15;;
45065;SDS011;30830;53.704;10.004;2023-10-09T01:52:09;2.47;;;1.17;;
45065;SDS011;30830;53.704;10.004;2023-10-09T01:54:41;2.22;;;1.15;;
45065;SDS011;30830;53.704;10.004;2023-10-09T01:57:12;3.05;;;1.23;;
45065;SDS011;30830;53.704;10.004;2023-10-09T01:59:39;3.80;;;1.23;;
45065;SDS011;30830;53.704;10.004;2023-10-09T02:04:54;1.75;;;1.10;;
45065;SDS011;30830;53.704;10.004;2023-10-09T02:07:35;2.42;;;1.27;;
45065;SDS011;30830;53.704;10.004;2023-10-09T02:10:17;2.53;;;1.17;;
45065;SDS011;30830;53.704;10.004;2023-10-09T02:12:50;1.40;;;1.15;;
45065;SDS011;30830;53.704;10.004;2023-10-09T02:18:09;3.47;;;1.10;;
45065;SDS011;30830;53.704;10.004;2023-10-09T02:21:20;1.92;;;1.13;;
45065;SDS011;30830;53.704;10.004;2023-10-09T02:23:38;1.90;;;1.73;;
45065;SDS011;30830;53.704;10.004;2023-10-09T02:26:09;3.25;;;1.50;;
45065;SDS011;30830;53.704;10.004;2023-10-09T02:28:54;2.45;;;1.02;;
45065;SDS011;30830;53.704;10.004;2023-10-09T02:31:24;1.52;;;1.30;;
45065;SDS011;30830;53.704;10.004;2023-10-09T02:33:53;2.08;;;1.08;;
45065;SDS011;30830;53.704;10.004;2023-10-09T02:36:21;2.58;;;1.23;;
45065;SDS011;30830;53.704;10.004;2023-10-09T02:38:47;1.25;;;1.15;;
45065;SDS011;30830;53.704;10.004;2023-10-09T02:41:14;2.40;;;1.50;;
45065;SDS011;30830;53.704;10.004;2023-10-09T02:43:40;2.72;;;1.50;;
45065;SDS011;30830;53.704;10.004;2023-10-09T02:46:18;2.42;;;1.73;;
45065;SDS011;30830;53.704;10.004;2023-10-09T02:48:49;2.60;;;1.35;;
45065;SDS011;30830;53.704;10.004;2023-10-09T02:53:54;2.90;;;1.98;;
45065;SDS011;30830;53.704;10.004;2023-10-09T02:56:23;1.50;;;1.25;;
45065;SDS011;30830;53.704;10.004;2023-10-09T02:58:55;1.52;;;1.30;;
45065;SDS011;30830;53.704;10.004;2023-10-09T03:01:37;4.10;;;1.30;;
45065;SDS011;30830;53.704;10.004;2023-10-09T03:04:05;2.00;;;1.38;;
45065;SDS011;30830;53.704;10.004;2023-10-09T03:06:32;2.45;;;1.25;;
45065;SDS011;30830;53.704;10.004;2023-10-09T03:09:01;1.58;;;1.23;;
45065;SDS011;30830;53.704;10.004;2023-10-09T03:11:41;1.88;;;1.42;;
45065;SDS011;30830;53.704;10.004;2023-10-09T03:14:18;5.05;;;2.30;;
45065;SDS011;30830;53.704;10.004;2023-10-09T03:16:45;2.35;;;1.20;;
45065;SDS011;30830;53.704;10.004;2023-10-09T03:19:13;3.53;;;1.17;;
45065;SDS011;30830;53.704;10.004;2023-10-09T03:21:38;2.28;;;1.58;;
45065;SDS011;30830;53.704;10.004;2023-10-09T03:24:04;1.60;;;1.45;;
45065;SDS011;30830;53.704;10.004;2023-10-09T03:26:31;2.45;;;1.40;;
45065;SDS011;30830;53.704;10.004;2023-10-09T03:28:57;1.73;;;1.40;;
45065;SDS011;30830;53.704;10.004;2023-10-09T03:31:26;2.20;;;1.42;;
45065;SDS011;30830;53.704;10.004;2023-10-09T03:33:58;2.65;;;1.30;;
45065;SDS011;30830;53.704;10.004;2023-10-09T03:36:23;1.40;;;1.30;;
45065;SDS011;30830;53.704;10.004;2023-10-09T03:38:51;2.00;;;1.17;;
45065;SDS011;30830;53.704;10.004;2023-10-09T03:41:20;3.95;;;1.33;;
45065;SDS011;30830;53.704;10.004;2023-10-09T03:43:46;2.40;;;1.02;;
45065;SDS011;30830;53.704;10.004;2023-10-09T03:46:12;2.20;;;1.50;;
45065;SDS011;30830;53.704;10.004;2023-10-09T03:48:51;3.88;;;1.38;;
45065;SDS011;30830;53.704;10.004;2023-10-09T03:51:17;3.00;;;1.38;;
45065;SDS011;30830;53.704;10.004;2023-10-09T03:53:50;3.85;;;1.88;;
45065;SDS011;30830;53.704;10.004;2023-10-09T03:56:17;1.27;;;1.15;;
45065;SDS011;30830;53.704;10.004;2023-10-09T03:58:47;1.35;;;1.23;;
45065;SDS011;30830;53.704;10.004;2023-10-09T04:01:21;5.50;;;1.27;;
45065;SDS011;30830;53.704;10.004;2023-10-09T04:03:56;2.22;;;0.93;;
45065;SDS011;30830;53.704;10.004;2023-10-09T04:06:26;1.35;;;1.00;;
45065;SDS011;30830;53.704;10.004;2023-10-09T04:09:07;2.38;;;1.67;;
45065;SDS011;30830;53.704;10.004;2023-10-09T04:14:14;2.30;;;0.93;;
45065;SDS011;30830;53.704;10.004;2023-10-09T04:16:57;5.53;;;1.30;;
45065;SDS011;30830;53.704;10.004;2023-10-09T04:19:52;3.13;;;1.05;;
45065;SDS011;30830;53.704;10.004;2023-10-09T04:22:40;1.70;;;1.15;;
45065;SDS011;30830;53.704;10.004;2023-10-09T04:25:24;2.08;;;0.85;;
45065;SDS011;30830;53.704;10.004;2023-10-09T04:27:51;1.52;;;0.80;;
45065;SDS011;30830;53.704;10.004;2023-10-09T04:30:39;2.95;;;1.48;;
45065;SDS011;30830;53.704;10.004;2023-10-09T04:33:06;1.88;;;1.08;;
45065;SDS011;30830;53.704;10.004;2023-10-09T04:35:50;1.25;;;0.93;;
45065;SDS011;30830;53.704;10.004;2023-10-09T04:38:36;2.00;;;1.40;;
45065;SDS011;30830;53.704;10.004;2023-10-09T04:41:04;3.22;;;1.38;;
45065;SDS011;30830;53.704;10.004;2023-10-09T04:43:30;2.85;;;1.10;;
45065;SDS011;30830;53.704;10.004;2023-10-09T04:45:58;2.50;;;1.00;;
45065;SDS011;30830;53.704;10.004;2023-10-09T04:48:48;4.13;;;1.35;;
45065;SDS011;30830;53.704;10.004;2023-10-09T04:51:17;1.35;;;1.08;;
45065;SDS011;30830;53.704;10.004;2023-10-09T04:53:46;2.67;;;1.15;;
45065;SDS011;30830;53.704;10.004;2023-10-09T04:56:20;1.17;;;0.80;;
45065;SDS011;30830;53.704;10.004;2023-10-09T04:58:49;2.15;;;1.08;;
45065;SDS011;30830;53.704;10.004;2023-10-09T05:01:28;2.70;;;1.27;;
45065;SDS011;30830;53.704;10.004;2023-10-09T05:04:01;1.98;;;1.25;;
45065;SDS011;30830;53.704;10.004;2023-10-09T05:06:29;1.77;;;1.10;;
45065;SDS011;30830;53.704;10.004;2023-10-09T05:09:07;1.80;;;1.17;;
45065;SDS011;30830;53.704;10.004;2023-10-09T05:11:34;2.25;;;1.20;;
45065;SDS011;30830;53.704;10.004;2023-10-09T05:14:21;1.23;;;0.90;;
45065;SDS011;30830;53.704;10.004;2023-10-09T05:17:03;3.65;;;1.10;;
45065;SDS011;30830;53.704;10.004;2023-10-09T05:19:31;1.85;;;1.23;;
45065;SDS011;30830;53.704;10.004;2023-10-09T05:22:15;1.48;;;1.25;;
45065;SDS011;30830;53.704;10.004;2023-10-09T05:24:59;2.45;;;1.33;;
45065;SDS011;30830;53.704;10.004;2023-10-09T05:27:25;4.00;;;1.17;;
45065;SDS011;30830;53.704;10.004;2023-10-09T05:30:11;1.70;;;0.95;;
45065;SDS011;30830;53.704;10.004;2023-10-09T05:32:55;1.67;;;1.30;;
45065;SDS011;30830;53.704;10.004;2023-10-09T05:35:29;6.10;;;1.35;;
45065;SDS011;30830;53.704;10.004;2023-10-09T05:38:05;2.28;;;1.13;;
45065;SDS011;30830;53.704;10.004;2023-10-09T05:40:50;1.65;;;1.10;;
45065;SDS011;30830;53.704;10.004;2023-10-09T05:43:19;1.88;;;1.13;;
45065;SDS011;30830;53.704;10.004;2023-10-09T05:46:04;1.25;;;1.10;;
45065;SDS011;30830;53.704;10.004;2023-10-09T05:48:33;3.95;;;1.58;;
45065;SDS011;30830;53.704;10.004;2023-10-09T05:51:18;2.75;;;1.20;;
45065;SDS011;30830;53.704;10.004;2023-10-09T05:54:02;3.58;;;1.50;;
45065;SDS011;30830;53.704;10.004;2023-10-09T05:56:48;4.87;;;1.83;;
45065;SDS011;30830;53.704;10.004;2023-10-09T05:59:33;1.33;;;1.00;;
45065;SDS011;30830;53.704;10.004;2023-10-09T06:02:17;2.67;;;1.42;;
45065;SDS011;30830;53.704;10.004;2023-10-09T06:05:02;3.03;;;1.23;;
45065;SDS011;30830;53.704;10.004;2023-10-09T06:07:44;1.48;;;1.15;;
45065;SDS011;30830;53.704;10.004;2023-10-09T06:10:29;3.38;;;1.13;;
45065;SDS011;30830;53.704;10.004;2023-10-09T06:13:04;2.72;;;1.17;;
45065;SDS011;30830;53.704;10.004;2023-10-09T06:15:36;3.03;;;1.48;;
45065;SDS011;30830;53.704;10.004;2023-10-09T06:18:08;1.80;;;1.58;;
45065;SDS011;30830;53.704;10.004;2023-10-09T06:20:58;2.17;;;1.40;;
45065;SDS011;30830;53.704;10.004;2023-10-09T06:23:55;2.85;;;1.70;;
45065;SDS011;30830;53.704;10.004;2023-10-09T06:26:39;1.83;;;1.13;;
45065;SDS011;30830;53.704;10.004;2023-10-09T06:29:16;1.65;;;1.13;;
45065;SDS011;30830;53.704;10.004;2023-10-09T06:31:58;2.83;;;1.33;;
45065;SDS011;30830;53.704;10.004;2023-10-09T06:34:41;2.90;;;1.27;;
45065;SDS011;30830;53.704;10.004;2023-10-09T06:37:10;2.63;;;1.40;;
45065;SDS011;30830;53.704;10.004;2023-10-09T06:39:59;2.50;;;1.23;;
45065;SDS011;30830;53.704;10.004;2023-10-09T06:42:54;4.72;;;1.90;;
45065;SDS011;30830;53.704;10.004;2023-10-09T06:45:20;1.85;;;1.55;;
45065;SDS011;30830;53.704;10.004;2023-10-09T06:47:47;5.38;;;2.15;;
45065;SDS011;30830;53.704;10.004;2023-10-09T06:50:35;4.53;;;1.80;;
45065;SDS011;30830;53.704;10.004;2023-10-09T06:53:19;4.03;;;1.67;;
45065;SDS011;30830;53.704;10.004;2023-10-09T06:55:45;2.47;;;1.30;;
45065;SDS011;30830;53.704;10.004;2023-10-09T06:58:17;4.13;;;1.67;;
45065;SDS011;30830;53.704;10.004;2023-10-09T07:00:53;3.03;;;1.60;;
45065;SDS011;30830;53.704;10.004;2023-10-09T07:03:38;1.70;;;1.60;;
45065;SDS011;30830;53.704;10.004;2023-10-09T07:06:17;3.05;;;1.75;;
45065;SDS011;30830;53.704;10.004;2023-10-09T07:16:55;2.83;;;1.85;;
45065;SDS011;30830;53.704;10.004;2023-10-09T07:19:49;3.58;;;1.77;;
45065;SDS011;30830;53.704;10.004;2023-10-09T07:22:16;4.00;;;1.80;;
45065;SDS011;30830;53.704;10.004;2023-10-09T07:24:44;2.00;;;1.55;;
45065;SDS011;30830;53.704;10.004;2023-10-09T07:27:28;3.50;;;1.92;;
45065;SDS011;30830;53.704;10.004;2023-10-09T07:30:20;2.72;;;1.40;;
45065;SDS011;30830;53.704;10.004;2023-10-09T07:32:59;3.92;;;1.90;;
45065;SDS011;30830;53.704;10.004;2023-10-09T07:35:47;3.05;;;1.85;;
45065;SDS011;30830;53.704;10.004;2023-10-09T07:38:20;2.70;;;1.90;;
45065;SDS011;30830;53.704;10.004;2023-10-09T07:40:54;2.65;;;2.05;;
45065;SDS011;30830;53.704;10.004;2023-10-09T07:43:21;2.17;;;1.92;;
45065;SDS011;30830;53.704;10.004;2023-10-09T07:45:53;3.03;;;2.30;;
45065;SDS011;30830;53.704;10.004;2023-10-09T07:48:23;3.20;;;2.20;;
45065;SDS011;30830;53.704;10.004;2023-10-09T07:50:51;3.50;;;1.90;;
45065;SDS011;30830;53.704;10.004;2023-10-09T07:53:22;2.47;;;1.70;;
45065;SDS011;30830;53.704;10.004;2023-10-09T07:55:52;2.25;;;1.90;;
45065;SDS011;30830;53.704;10.004;2023-10-09T07:58:31;4.35;;;2.42;;
45065;SDS011;30830;53.704;10.004;2023-10-09T08:00:58;2.97;;;1.80;;
45065;SDS011;30830;53.704;10.004;2023-10-09T08:03:35;2.70;;;2.00;;
45065;SDS011;30830;53.704;10.004;2023-10-09T08:06:01;2.25;;;1.85;;
45065;SDS011;30830;53.704;10.004;2023-10-09T08:08:46;2.85;;;2.28;;
45065;SDS011;30830;53.704;10.004;2023-10-09T08:11:41;3.20;;;2.40;;
45065;SDS011;30830;53.704;10.004;2023-10-09T08:14:11;2.38;;;1.95;;
45065;SDS011;30830;53.704;10.004;2023-10-09T08:16:55;4.45;;;2.40;;
45065;SDS011;30830;53.704;10.004;2023-10-09T08:19:40;2.33;;;2.10;;
45065;SDS011;30830;53.704;10.004;2023-10-09T08:22:25;3.65;;;2.13;;
45065;SDS011;30830;53.704;10.004;2023-10-09T08:24:55;3.75;;;2.25;;
45065;SDS011;30830;53.704;10.004;2023-10-09T08:27:24;2.20;;;1.77;;
45065;SDS011;30830;53.704;10.004;2023-10-09T08:30:11;2.50;;;2.20;;
45065;SDS011;30830;53.704;10.004;2023-10-09T08:32:43;2.80;;;2.30;;
45065;SDS011;30830;53.704;10.004;2023-10-09T08:35:51;2.47;;;2.28;;
45065;SDS011;30830;53.704;10.004;2023-10-09T08:38:20;2.42;;;2.22;;
45065;SDS011;30830;53.704;10.004;2023-10-09T08:40:50;3.28;;;2.50;;
45065;SDS011;30830;53.704;10.004;2023-10-09T08:43:19;2.53;;;2.25;;
45065;SDS011;30830;53.704;10.004;2023-10-09T08:45:47;2.70;;;2.13;;
45065;SDS011;30830;53.704;10.004;2023-10-09T08:48:14;5.65;;;2.67;;
45065;SDS011;30830;53.704;10.004;2023-10-09T08:50:47;3.25;;;2.72;;
45065;SDS011;30830;53.704;10.004;2023-10-09T08:53:15;2.55;;;2.30;;
45065;SDS011;30830;53.704;10.004;2023-10-09T08:55:41;3.67;;;2.53;;
45065;SDS011;30830;53.704;10.004;2023-10-09T08:58:08;4.18;;;2.53;;
45065;SDS011;30830;53.704;10.004;2023-10-09T09:01:07;4.15;;;2.55;;
45065;SDS011;30830;53.704;10.004;2023-10-09T09:03:39;3.10;;;2.30;;
45065;SDS011;30830;53.704;10.004;2023-10-09T09:06:06;2.15;;;1.95;;
45065;SDS011;30830;53.704;10.004;2023-10-09T09:08:33;4.10;;;2.20;;
45065;SDS011;30830;53.704;10.004;2023-10-09T09:11:03;2.35;;;2.15;;
45065;SDS011;30830;53.704;10.004;2023-10-09T09:16:21;1.88;;;1.75;;
45065;SDS011;30830;53.704;10.004;2023-10-09T09:21:26;2.30;;;1.83;;
45065;SDS011;30830;53.704;10.004;2023-10-09T09:23:56;2.63;;;2.20;;
45065;SDS011;30830;53.704;10.004;2023-10-09T09:26:38;2.97;;;1.50;;
45065;SDS011;30830;53.704;10.004;2023-10-09T09:29:10;1.85;;;1.70;;
45065;SDS011;30830;53.704;10.004;2023-10-09T09:31:36;2.25;;;1.75;;
45065;SDS011;30830;53.704;10.004;2023-10-09T09:34:07;1.83;;;1.73;;
45065;SDS011;30830;53.704;10.004;2023-10-09T09:36:57;2.10;;;1.90;;
45065;SDS011;30830;53.704;10.004;2023-10-09T09:39:27;2.28;;;1.80;;
45065;SDS011;30830;53.704;10.004;2023-10-09T09:41:57;2.42;;;1.98;;
45065;SDS011;30830;53.704;10.004;2023-10-09T09:44:32;2.42;;;2.00;;
45065;SDS011;30830;53.704;10.004;2023-10-09T09:47:08;2.15;;;1.73;;
45065;SDS011;30830;53.704;10.004;2023-10-09T09:49:37;2.53;;;1.88;;
45065;SDS011;30830;53.704;10.004;2023-10-09T09:52:06;2.35;;;2.05;;
45065;SDS011;30830;53.704;10.004;2023-10-09T09:54:37;2.50;;;2.30;;
45065;SDS011;30830;53.704;10.004;2023-10-09T09:57:03;1.80;;;1.52;;
45065;SDS011;30830;53.704;10.004;2023-10-09T09:59:41;1.90;;;1.80;;
45065;SDS011;30830;53.704;10.004;2023-10-09T10:02:18;2.83;;;1.73;;
45065;SDS011;30830;53.704;10.004;2023-10-09T10:04:54;2.42;;;1.60;;
45065;SDS011;30830;53.704;10.004;2023-10-09T10:07:24;1.98;;;1.70;;
45065;SDS011;30830;53.704;10.004;2023-10-09T10:09:53;1.77;;;1.65;;
45065;SDS011;30830;53.704;10.004;2023-10-09T10:18:23;2.42;;;1.30;;
45065;SDS011;30830;53.704;10.004;2023-10-09T10:23:39;1.83;;;1.73;;
45065;SDS011;30830;53.704;10.004;2023-10-09T10:26:21;2.97;;;1.27;;
45065;SDS011;30830;53.704;10.004;2023-10-09T10:29:14;1.10;;;0.98;;
45065;SDS011;30830;53.704;10.004;2023-10-09T10:31:59;1.63;;;1.30;;
45065;SDS011;30830;53.704;10.004;2023-10-09T10:34:26;1.67;;;1.45;;
45065;SDS011;30830;53.704;10.004;2023-10-09T10:40:09;1.73;;;1.50;;
45065;SDS011;30830;53.704;10.004;2023-10-09T10:43:01;1.20;;;1.10;;
45065;SDS011;30830;53.704;10.004;2023-10-09T10:45:39;1.30;;;1.17;;
45065;SDS011;30830;53.704;10.004;2023-10-09T10:48:10;1.35;;;1.05;;
45065;SDS011;30830;53.704;10.004;2023-10-09T10:50:48;1.42;;;1.20;;
45065;SDS011;30830;53.704;10.004;2023-10-09T10:53:22;1.10;;;1.00;;
45065;SDS011;30830;53.704;10.004;2023-10-09T10:55:58;1.08;;;0.98;;
45065;SDS011;30830;53.704;10.004;2023-10-09T10:58:51;1.20;;;1.10;;
45065;SDS011;30830;53.704;10.004;2023-10-09T11:01:30;1.83;;;1.20;;
45065;SDS011;30830;53.704;10.004;2023-10-09T11:04:15;1.20;;;1.10;;
45065;SDS011;30830;53.704;10.004;2023-10-09T11:06:50;1.70;;;1.10;;
45065;SDS011;30830;53.704;10.004;2023-10-09T11:09:16;1.38;;;1.00;;
45065;SDS011;30830;53.704;10.004;2023-10-09T11:11:51;0.80;;;0.75;;
45065;SDS011;30830;53.704;10.004;2023-10-09T11:14:44;1.27;;;0.77;;
45065;SDS011;30830;53.704;10.004;2023-10-09T11:17:37;1.50;;;0.88;;
45065;SDS011;30830;53.704;10.004;2023-10-09T11:20:04;1.27;;;0.80;;
45065;SDS011;30830;53.704;10.004;2023-10-09T11:22:51;0.63;;;0.60;;
45065;SDS011;30830;53.704;10.004;2023-10-09T11:25:35;0.75;;;0.75;;
45065;SDS011;30830;53.704;10.004;2023-10-09T11:28:26;0.73;;;0.68;;
45065;SDS011;30830;53.704;10.004;2023-10-09T11:31:10;1.17;;;0.98;;
45065;SDS011;30830;53.704;10.004;2023-10-09T11:33:43;1.35;;;1.15;;
45065;SDS011;30830;53.704;10.004;2023-10-09T11:36:19;1.20;;;1.10;;
45065;SDS011;30830;53.704;10.004;2023-10-09T11:38:59;0.70;;;0.70;;
45065;SDS011;30830;53.704;10.004;2023-10-09T11:41:44;1.15;;;1.05;;
45065;SDS011;30830;53.704;10.004;2023-10-09T11:44:14;1.15;;;1.00;;
45065;SDS011;30830;53.704;10.004;2023-10-09T11:46:58;1.25;;;0.90;;
45065;SDS011;30830;53.704;10.004;2023-10-09T11:49:46;1.33;;;1.10;;
45065;SDS011;30830;53.704;10.004;2023-10-09T11:52:25;2.17;;;1.05;;
45065;SDS011;30830;53.704;10.004;2023-10-09T11:55:00;0.85;;;0.80;;
45065;SDS011;30830;53.704;10.004;2023-10-09T11:57:26;1.20;;;1.10;;
45065;SDS011;30830;53.704;10.004;2023-10-09T12:00:02;0.93;;;0.80;;
45065;SDS011;30830;53.704;10.004;2023-10-09T12:02:36;1.38;;;1.05;;
45065;SDS011;30830;53.704;10.004;2023-10-09T12:05:08;1.10;;;1.00;;
45065;SDS011;30830;53.704;10.004;2023-10-09T12:07:41;1.02;;;0.93;;
45065;SDS011;30830;53.704;10.004;2023-10-09T12:10:08;1.20;;;0.90;;
45065;SDS011;30830;53.704;10.004;2023-10-09T12:12:35;1.42;;;0.95;;
45065;SDS011;30830;53.704;10.004;2023-10-09T12:15:01;0.82;;;0.80;;
45065;SDS011;30830;53.704;10.004;2023-10-09T12:17:30;1.10;;;1.00;;
45065;SDS011;30830;53.704;10.004;2023-10-09T12:19:58;1.40;;;0.98;;
45065;SDS011;30830;53.704;10.004;2023-10-09T12:22:24;1.23;;;1.13;;
45065;SDS011;30830;53.704;10.004;2023-10-09T12:24:52;1.00;;;0.90;;
45065;SDS011;30830;53.704;10.004;2023-10-09T12:27:18;1.13;;;1.02;;
45065;SDS011;30830;53.704;10.004;2023-10-09T12:29:45;0.98;;;0.93;;
45065;SDS011;30830;53.704;10.004;2023-10-09T12:32:11;1.42;;;1.33;;
45065;SDS011;30830;53.704;10.004;2023-10-09T12:34:37;1.20;;;1.00;;
45065;SDS011;30830;53.704;10.004;2023-10-09T12:37:03;1.20;;;0.98;;
45065;SDS011;30830;53.704;10.004;2023-10-09T12:39:29;1.25;;;1.00;;
45065;SDS011;30830;53.704;10.004;2023-10-09T12:41:58;1.25;;;1.15;;
45065;SDS011;30830;53.704;10.004;2023-10-09T12:44:31;1.40;;;1.30;;
45065;SDS011;30830;53.704;10.004;2023-10-09T12:47:04;1.85;;;1.52;;
45065;SDS011;30830;53.704;10.004;2023-10-09T12:49:36;1.27;;;1.17;;
45065;SDS011;30830;53.704;10.004;2023-10-09T12:52:05;1.40;;;1.20;;
45065;SDS011;30830;53.704;10.004;2023-10-09T12:54:44;1.65;;;1.50;;
45065;SDS011;30830;53.704;10.004;2023-10-09T12:57:12;1.38;;;1.20;;
45065;SDS011;30830;53.704;10.004;2023-10-09T12:59:41;1.33;;;1.10;;
45065;SDS011;30830;53.704;10.004;2023-10-09T13:02:13;1.35;;;1.25;;
45065;SDS011;30830;53.704;10.004;2023-10-09T13:04:53;1.02;;;0.85;;
45065;SDS011;30830;53.704;10.004;2023-10-09T13:07:19;2.03;;;0.90;;
45065;SDS011;30830;53.704;10.004;2023-10-09T13:09:47;1.20;;;1.10;;
45065;SDS011;30830;53.704;10.004;2023-10-09T13:12:33;0.80;;;0.75;;
45065;SDS011;30830;53.704;10.004;2023-10-09T13:14:59;1.00;;;1.00;;
45065;SDS011;30830;53.704;10.004;2023-10-09T13:17:24;1.20;;;1.10;;
45065;SDS011;30830;53.704;10.004;2023-10-09T13:19:53;1.25;;;1.15;;
45065;SDS011;30830;53.704;10.004;2023-10-09T13:22:19;1.35;;;1.25;;
45065;SDS011;30830;53.704;10.004;2023-10-09T13:24:46;1.38;;;0.85;;
45065;SDS011;30830;53.704;10.004;2023-10-09T13:27:13;1.70;;;1.20;;
45065;SDS011;30830;53.704;10.004;2023-10-09T13:29:46;1.25;;;1.15;;
45065;SDS011;30830;53.704;10.004;2023-10-09T13:32:12;1.30;;;1.20;;
45065;SDS011;30830;53.704;10.004;2023-10-09T13:34:40;1.30;;;1.20;;
45065;SDS011;30830;53.704;10.004;2023-10-09T13:37:09;1.20;;;1.10;;
45065;SDS011;30830;53.704;10.004;2023-10-09T13:39:38;1.30;;;1.20;;
45065;SDS011;30830;53.704;10.004;2023-10-09T13:42:17;1.80;;;1.00;;
45065;SDS011;30830;53.704;10.004;2023-10-09T13:44:42;1.33;;;1.23;;
45065;SDS011;30830;53.704;10.004;2023-10-09T13:47:08;1.40;;;1.27;;
45065;SDS011;30830;53.704;10.004;2023-10-09T13:49:44;1.40;;;1.30;;
45065;SDS011;30830;53.704;10.004;2023-10-09T13:52:10;1.27;;;1.00;;
45065;SDS011;30830;53.704;10.004;2023-10-09T13:54:35;1.38;;;1.27;;
45065;SDS011;30830;53.704;10.004;2023-10-09T13:57:01;1.10;;;1.05;;
45065;SDS011;30830;53.704;10.004;2023-10-09T13:59:32;1.45;;;1.30;;
45065;SDS011;30830;53.704;10.004;2023-10-09T14:02:00;1.55;;;1.45;;
45065;SDS011;30830;53.704;10.004;2023-10-09T14:04:27;1.98;;;1.63;;
45065;SDS011;30830;53.704;10.004;2023-10-09T14:06:53;1.35;;;1.25;;
45065;SDS011;30830;53.704;10.004;2023-10-09T14:09:22;1.60;;;1.50;;
45065;SDS011;30830;53.704;10.004;2023-10-09T14:12:02;1.95;;;1.70;;
45065;SDS011;30830;53.704;10.004;2023-10-09T14:14:42;2.47;;;2.25;;
45065;SDS011;30830;53.704;10.004;2023-10-09T14:17:14;2.08;;;1.90;;
45065;SDS011;30830;53.704;10.004;2023-10-09T14:19:48;2.05;;;1.85;;
45065;SDS011;30830;53.704;10.004;2023-10-09T14:22:34;1.85;;;1.70;;
45065;SDS011;30830;53.704;10.004;2023-10-09T14:25:03;2.55;;;2.03;;
45065;SDS011;30830;53.704;10.004;2023-10-09T14:27:38;2.28;;;2.08;;
45065;SDS011;30830;53.704;10.004;2023-10-09T14:30:03;2.45;;;2.25;;
45065;SDS011;30830;53.704;10.004;2023-10-09T14:32:37;1.63;;;1.52;;
45065;SDS011;30830;53.704;10.004;2023-10-09T14:35:09;2.80;;;2.60;;
45065;SDS011;30830;53.704;10.004;2023-10-09T14:37:40;2.60;;;2.40;;
45065;SDS011;30830;53.704;10.004;2023-10-09T14:40:06;2.63;;;2.42;;
45065;SDS011;30830;53.704;10.004;2023-10-09T14:42:38;2.45;;;2.20;;
45065;SDS011;30830;53.704;10.004;2023-10-09T14:45:09;2.17;;;1.90;;
45065;SDS011;30830;53.704;10.004;2023-10-09T14:47:40;2.08;;;1.88;;
45065;SDS011;30830;53.704;10.004;2023-10-09T14:50:06;2.53;;;2.33;;
45065;SDS011;30830;53.704;10.004;2023-10-09T14:52:34;2.50;;;2.33;;
45065;SDS011;30830;53.704;10.004;2023-10-09T14:55:03;1.98;;;1.88;;
45065;SDS011;30830;53.704;10.004;2023-10-09T14:57:30;2.20;;;2.00;;
45065;SDS011;30830;53.704;10.004;2023-10-09T14:59:58;2.30;;;2.10;;
45065;SDS011;30830;53.704;10.004;2023-10-09T15:02:24;2.53;;;2.33;;
45065;SDS011;30830;53.704;10.004;2023-10-09T15:04:50;2.22;;;2.03;;
45065;SDS011;30830;53.704;10.004;2023-10-09T15:07:17;3.33;;;2.38;;
45065;SDS011;30830;53.704;10.004;2023-10-09T15:09:46;2.38;;;2.17;;
45065;SDS011;30830;53.704;10.004;2023-10-09T15:12:11;2.55;;;1.92;;
45065;SDS011;30830;53.704;10.004;2023-10-09T15:14:37;3.15;;;2.33;;
45065;SDS011;30830;53.704;10.004;2023-10-09T15:17:04;2.38;;;2.17;;
45065;SDS011;30830;53.704;10.004;2023-10-09T15:19:31;2.75;;;1.90;;
45065;SDS011;30830;53.704;10.004;2023-10-09T15:21:57;2.53;;;2.33;;
45065;SDS011;30830;53.704;10.004;2023-10-09T15:24:23;3.83;;;2.20;;
45065;SDS011;30830;53.704;10.004;2023-10-09T15:26:50;2.47;;;2.28;;
45065;SDS011;30830;53.704;10.004;2023-10-09T15:29:22;2.08;;;1.90;;
45065;SDS011;30830;53.704;10.004;2023-10-09T15:31:54;2.13;;;1.92;;
45065;SDS011;30830;53.704;10.004;2023-10-09T15:34:20;1.98;;;1.88;;
45065;SDS011;30830;53.704;10.004;2023-10-09T15:36:46;2.33;;;2.10;;
45065;SDS011;30830;53.704;10.004;2023-10-09T15:39:15;2.72;;;2.53;;
45065;SDS011;30830;53.704;10.004;2023-10-09T15:41:47;2.72;;;2.10;;
45065;SDS011;30830;53.704;10.004;2023-10-09T15:44:13;3.00;;;2.67;;
45065;SDS011;30830;53.704;10.004;2023-10-09T15:46:39;2.65;;;2.45;;
45065;SDS011;30830;53.704;10.004;2023-10-09T15:49:05;2.47;;;2.28;;